sensor_id;sensor_type;location;lat;lon;timestamp;P1;durP1;ratioP1;P2;durP2;ratioP2
16693;SDS011;39538;52.196;9.892;2022-12-07T00:01:26;18.13;;;16.20;;
16693;SDS011;39538;52.196;9.892;2022-12-07T00:03:54;21.40;;;17.03;;
16693;SDS011;39538;52.196;9.892;2022-12-07T00:06:25;16.63;;;15.03;;
16693;SDS011;39538;52.196;9.892;2022-12-07T00:08:52;18.13;;;16.23;;
16693;SDS011;39538;52.196;9.892;2022-12-07T00:11:20;18.37;;;15.20;;
16693;SDS011;39538;52.196;9.892;2022-12-07T00:13:52;27.90;;;16.83;;
16693;SDS011;39538;52.196;9.892;2022-12-07T00:16:20;17.60;;;15.80;;
16693;SDS011;39538;52.196;9.892;2022-12-07T00:18:49;27.83;;;20.47;;
16693;SDS011;39538;52.196;9.892;2022-12-07T00:21:17;16.50;;;14.40;;
16693;SDS011;39538;52.196;9.892;2022-12-07T00:23:45;23.80;;;17.50;;
16693;SDS011;39538;52.196;9.892;2022-12-07T00:26:13;18.67;;;16.07;;
16693;SDS011;39538;52.196;9.892;2022-12-07T00:28:41;18.93;;;15.70;;
16693;SDS011;39538;52.196;9.892;2022-12-07T00:31:13;16.23;;;14.57;;
16693;SDS011;39538;52.196;9.892;2022-12-07T00:33:41;26.03;;;16.67;;
16693;SDS011;39538;52.196;9.892;2022-12-07T00:36:08;22.53;;;17.20;;
16693;SDS011;39538;52.196;9.892;2022-12-07T00:38:37;21.97;;;15.20;;
16693;SDS011;39538;52.196;9.892;2022-12-07T00:41:05;17.67;;;15.43;;
16693;SDS011;39538;52.196;9.892;2022-12-07T00:43:33;26.57;;;16.27;;
16693;SDS011;39538;52.196;9.892;2022-12-07T00:46:00;16.30;;;14.60;;
16693;SDS011;39538;52.196;9.892;2022-12-07T00:48:28;18.10;;;14.60;;
16693;SDS011;39538;52.196;9.892;2022-12-07T00:50:54;15.43;;;13.90;;
16693;SDS011;39538;52.196;9.892;2022-12-07T00:53:21;16.47;;;13.67;;
16693;SDS011;39538;52.196;9.892;2022-12-07T00:55:47;16.10;;;14.33;;
16693;SDS011;39538;52.196;9.892;2022-12-07T00:58:14;16.53;;;13.83;;
16693;SDS011;39538;52.196;9.892;2022-12-07T01:00:41;15.37;;;13.30;;
16693;SDS011;39538;52.196;9.892;2022-12-07T01:03:09;14.30;;;12.30;;
16693;SDS011;39538;52.196;9.892;2022-12-07T01:05:39;15.83;;;12.90;;
16693;SDS011;39538;52.196;9.892;2022-12-07T01:08:06;15.40;;;13.93;;
16693;SDS011;39538;52.196;9.892;2022-12-07T01:10:32;13.40;;;12.10;;
16693;SDS011;39538;52.196;9.892;2022-12-07T01:12:59;18.03;;;14.10;;
16693;SDS011;39538;52.196;9.892;2022-12-07T01:15:26;15.47;;;12.37;;
16693;SDS011;39538;52.196;9.892;2022-12-07T01:17:52;13.70;;;12.27;;
16693;SDS011;39538;52.196;9.892;2022-12-07T01:20:20;14.87;;;13.37;;
16693;SDS011;39538;52.196;9.892;2022-12-07T01:22:48;15.40;;;13.87;;
16693;SDS011;39538;52.196;9.892;2022-12-07T01:25:14;16.37;;;14.57;;
16693;SDS011;39538;52.196;9.892;2022-12-07T01:27:41;14.07;;;12.77;;
16693;SDS011;39538;52.196;9.892;2022-12-07T01:30:09;17.67;;;15.87;;
16693;SDS011;39538;52.196;9.892;2022-12-07T01:32:37;14.47;;;12.23;;
16693;SDS011;39538;52.196;9.892;2022-12-07T01:35:03;15.83;;;14.20;;
16693;SDS011;39538;52.196;9.892;2022-12-07T01:37:33;13.77;;;12.37;;
16693;SDS011;39538;52.196;9.892;2022-12-07T01:40:01;13.83;;;12.70;;
16693;SDS011;39538;52.196;9.892;2022-12-07T01:42:29;14.13;;;12.77;;
16693;SDS011;39538;52.196;9.892;2022-12-07T01:48:02;13.20;;;11.77;;
16693;SDS011;39538;52.196;9.892;2022-12-07T01:50:31;12.83;;;11.67;;
16693;SDS011;39538;52.196;9.892;2022-12-07T01:52:57;13.90;;;12.37;;
16693;SDS011;39538;52.196;9.892;2022-12-07T01:55:28;14.83;;;13.43;;
16693;SDS011;39538;52.196;9.892;2022-12-07T01:57:55;15.17;;;13.07;;
16693;SDS011;39538;52.196;9.892;2022-12-07T02:00:22;15.43;;;14.03;;
16693;SDS011;39538;52.196;9.892;2022-12-07T02:02:51;14.70;;;13.27;;
16693;SDS011;39538;52.196;9.892;2022-12-07T02:05:20;14.77;;;13.33;;
16693;SDS011;39538;52.196;9.892;2022-12-07T02:07:49;14.83;;;13.57;;
16693;SDS011;39538;52.196;9.892;2022-12-07T02:10:17;14.63;;;13.23;;
16693;SDS011;39538;52.196;9.892;2022-12-07T02:12:47;15.27;;;13.63;;
16693;SDS011;39538;52.196;9.892;2022-12-07T02:15:17;14.50;;;13.00;;
16693;SDS011;39538;52.196;9.892;2022-12-07T02:17:48;14.13;;;12.73;;
16693;SDS011;39538;52.196;9.892;2022-12-07T02:20:28;14.80;;;13.47;;
16693;SDS011;39538;52.196;9.892;2022-12-07T02:26:08;16.90;;;14.83;;
16693;SDS011;39538;52.196;9.892;2022-12-07T02:29:06;14.77;;;13.53;;
16693;SDS011;39538;52.196;9.892;2022-12-07T02:31:41;15.47;;;13.83;;
16693;SDS011;39538;52.196;9.892;2022-12-07T02:34:14;14.47;;;13.07;;
16693;SDS011;39538;52.196;9.892;2022-12-07T02:36:50;21.00;;;15.73;;
16693;SDS011;39538;52.196;9.892;2022-12-07T02:39:23;17.43;;;15.07;;
16693;SDS011;39538;52.196;9.892;2022-12-07T02:41:55;15.50;;;13.77;;
16693;SDS011;39538;52.196;9.892;2022-12-07T02:44:27;17.37;;;15.17;;
16693;SDS011;39538;52.196;9.892;2022-12-07T02:46:57;15.97;;;14.17;;
16693;SDS011;39538;52.196;9.892;2022-12-07T02:49:27;15.23;;;13.90;;
16693;SDS011;39538;52.196;9.892;2022-12-07T02:51:54;16.63;;;15.10;;
16693;SDS011;39538;52.196;9.892;2022-12-07T02:54:21;15.77;;;14.27;;
16693;SDS011;39538;52.196;9.892;2022-12-07T02:56:49;17.63;;;14.83;;
16693;SDS011;39538;52.196;9.892;2022-12-07T02:59:21;19.47;;;17.40;;
16693;SDS011;39538;52.196;9.892;2022-12-07T03:02:02;19.50;;;17.63;;
16693;SDS011;39538;52.196;9.892;2022-12-07T03:04:43;17.47;;;14.67;;
16693;SDS011;39538;52.196;9.892;2022-12-07T03:07:20;17.17;;;15.27;;
16693;SDS011;39538;52.196;9.892;2022-12-07T03:09:53;16.27;;;14.57;;
16693;SDS011;39538;52.196;9.892;2022-12-07T03:12:28;15.90;;;14.37;;
16693;SDS011;39538;52.196;9.892;2022-12-07T03:15:03;17.00;;;13.07;;
16693;SDS011;39538;52.196;9.892;2022-12-07T03:17:37;22.97;;;15.23;;
16693;SDS011;39538;52.196;9.892;2022-12-07T03:20:07;13.67;;;12.30;;
16693;SDS011;39538;52.196;9.892;2022-12-07T03:22:37;16.00;;;14.60;;
16693;SDS011;39538;52.196;9.892;2022-12-07T03:25:06;19.97;;;15.23;;
16693;SDS011;39538;52.196;9.892;2022-12-07T03:27:38;19.97;;;14.13;;
16693;SDS011;39538;52.196;9.892;2022-12-07T03:30:10;19.57;;;14.70;;
16693;SDS011;39538;52.196;9.892;2022-12-07T03:32:43;18.20;;;15.10;;
16693;SDS011;39538;52.196;9.892;2022-12-07T03:35:14;14.87;;;13.33;;
16693;SDS011;39538;52.196;9.892;2022-12-07T03:37:47;16.97;;;15.13;;
16693;SDS011;39538;52.196;9.892;2022-12-07T03:40:19;15.37;;;12.70;;
16693;SDS011;39538;52.196;9.892;2022-12-07T03:42:51;15.10;;;13.63;;
16693;SDS011;39538;52.196;9.892;2022-12-07T03:45:19;14.40;;;13.10;;
16693;SDS011;39538;52.196;9.892;2022-12-07T03:47:53;12.70;;;11.43;;
16693;SDS011;39538;52.196;9.892;2022-12-07T03:50:28;14.27;;;12.83;;
16693;SDS011;39538;52.196;9.892;2022-12-07T03:52:58;13.33;;;12.07;;
16693;SDS011;39538;52.196;9.892;2022-12-07T03:55:32;13.40;;;12.17;;
16693;SDS011;39538;52.196;9.892;2022-12-07T03:58:01;14.33;;;12.70;;
16693;SDS011;39538;52.196;9.892;2022-12-07T04:00:31;20.77;;;12.43;;
16693;SDS011;39538;52.196;9.892;2022-12-07T04:03:00;12.97;;;11.60;;
16693;SDS011;39538;52.196;9.892;2022-12-07T04:05:26;21.93;;;12.50;;
16693;SDS011;39538;52.196;9.892;2022-12-07T04:07:53;11.93;;;10.77;;
16693;SDS011;39538;52.196;9.892;2022-12-07T04:10:20;16.37;;;12.17;;
16693;SDS011;39538;52.196;9.892;2022-12-07T04:12:47;17.67;;;14.20;;
16693;SDS011;39538;52.196;9.892;2022-12-07T04:15:13;13.70;;;12.60;;
16693;SDS011;39538;52.196;9.892;2022-12-07T04:17:40;17.37;;;13.67;;
16693;SDS011;39538;52.196;9.892;2022-12-07T04:20:09;14.90;;;13.40;;
16693;SDS011;39538;52.196;9.892;2022-12-07T04:22:36;17.87;;;12.60;;
16693;SDS011;39538;52.196;9.892;2022-12-07T04:25:03;12.13;;;10.90;;
16693;SDS011;39538;52.196;9.892;2022-12-07T04:27:30;11.50;;;10.30;;
16693;SDS011;39538;52.196;9.892;2022-12-07T04:29:57;14.03;;;12.00;;
16693;SDS011;39538;52.196;9.892;2022-12-07T04:32:23;16.13;;;13.27;;
16693;SDS011;39538;52.196;9.892;2022-12-07T04:34:50;17.63;;;11.60;;
16693;SDS011;39538;52.196;9.892;2022-12-07T04:37:18;12.37;;;11.07;;
16693;SDS011;39538;52.196;9.892;2022-12-07T04:39:44;12.07;;;10.83;;
16693;SDS011;39538;52.196;9.892;2022-12-07T04:42:11;13.27;;;9.37;;
16693;SDS011;39538;52.196;9.892;2022-12-07T04:44:37;13.03;;;11.40;;
16693;SDS011;39538;52.196;9.892;2022-12-07T04:47:04;12.27;;;10.13;;
16693;SDS011;39538;52.196;9.892;2022-12-07T04:49:31;11.80;;;10.07;;
16693;SDS011;39538;52.196;9.892;2022-12-07T04:51:58;12.83;;;11.53;;
16693;SDS011;39538;52.196;9.892;2022-12-07T04:54:25;12.13;;;10.03;;
16693;SDS011;39538;52.196;9.892;2022-12-07T04:56:52;33.30;;;14.17;;
16693;SDS011;39538;52.196;9.892;2022-12-07T04:59:18;12.23;;;10.43;;
16693;SDS011;39538;52.196;9.892;2022-12-07T05:01:45;13.27;;;10.73;;
16693;SDS011;39538;52.196;9.892;2022-12-07T05:04:12;9.50;;;8.60;;
16693;SDS011;39538;52.196;9.892;2022-12-07T05:06:38;11.40;;;10.47;;
16693;SDS011;39538;52.196;9.892;2022-12-07T05:09:05;11.53;;;10.37;;
16693;SDS011;39538;52.196;9.892;2022-12-07T05:11:33;11.37;;;10.13;;
16693;SDS011;39538;52.196;9.892;2022-12-07T05:14:06;9.50;;;8.60;;
16693;SDS011;39538;52.196;9.892;2022-12-07T05:16:36;10.27;;;7.90;;
16693;SDS011;39538;52.196;9.892;2022-12-07T05:19:02;14.83;;;9.47;;
16693;SDS011;39538;52.196;9.892;2022-12-07T05:21:29;9.13;;;8.23;;
16693;SDS011;39538;52.196;9.892;2022-12-07T05:23:56;19.67;;;11.43;;
16693;SDS011;39538;52.196;9.892;2022-12-07T05:26:22;10.90;;;8.67;;
16693;SDS011;39538;52.196;9.892;2022-12-07T05:28:51;8.70;;;7.13;;
16693;SDS011;39538;52.196;9.892;2022-12-07T05:31:18;9.83;;;8.87;;
16693;SDS011;39538;52.196;9.892;2022-12-07T05:33:45;8.30;;;7.10;;
16693;SDS011;39538;52.196;9.892;2022-12-07T05:36:12;11.60;;;8.97;;
16693;SDS011;39538;52.196;9.892;2022-12-07T05:38:39;9.50;;;7.27;;
16693;SDS011;39538;52.196;9.892;2022-12-07T05:41:06;13.20;;;8.00;;
16693;SDS011;39538;52.196;9.892;2022-12-07T05:43:55;14.27;;;9.47;;
16693;SDS011;39538;52.196;9.892;2022-12-07T05:46:22;12.10;;;6.63;;
16693;SDS011;39538;52.196;9.892;2022-12-07T05:48:48;10.93;;;9.03;;
16693;SDS011;39538;52.196;9.892;2022-12-07T05:51:15;8.67;;;7.87;;
16693;SDS011;39538;52.196;9.892;2022-12-07T05:53:42;10.67;;;7.83;;
16693;SDS011;39538;52.196;9.892;2022-12-07T05:56:08;8.13;;;7.43;;
16693;SDS011;39538;52.196;9.892;2022-12-07T05:58:34;10.80;;;6.37;;
16693;SDS011;39538;52.196;9.892;2022-12-07T06:01:20;6.03;;;5.43;;
16693;SDS011;39538;52.196;9.892;2022-12-07T06:03:46;10.93;;;7.17;;
16693;SDS011;39538;52.196;9.892;2022-12-07T06:06:13;12.40;;;7.53;;
16693;SDS011;39538;52.196;9.892;2022-12-07T06:08:39;8.00;;;5.63;;
16693;SDS011;39538;52.196;9.892;2022-12-07T06:11:06;7.13;;;6.43;;
16693;SDS011;39538;52.196;9.892;2022-12-07T06:13:50;8.23;;;5.20;;
16693;SDS011;39538;52.196;9.892;2022-12-07T06:16:17;6.03;;;5.50;;
16693;SDS011;39538;52.196;9.892;2022-12-07T06:18:45;9.60;;;8.53;;
16693;SDS011;39538;52.196;9.892;2022-12-07T06:21:12;8.07;;;7.23;;
16693;SDS011;39538;52.196;9.892;2022-12-07T06:23:39;7.23;;;3.83;;
16693;SDS011;39538;52.196;9.892;2022-12-07T06:26:05;12.97;;;4.67;;
16693;SDS011;39538;52.196;9.892;2022-12-07T06:28:32;5.73;;;4.67;;
16693;SDS011;39538;52.196;9.892;2022-12-07T06:30:59;5.70;;;5.30;;
16693;SDS011;39538;52.196;9.892;2022-12-07T06:33:27;6.23;;;5.37;;
16693;SDS011;39538;52.196;9.892;2022-12-07T06:35:54;5.90;;;5.33;;
16693;SDS011;39538;52.196;9.892;2022-12-07T06:38:21;6.57;;;4.87;;
16693;SDS011;39538;52.196;9.892;2022-12-07T06:40:48;6.43;;;5.93;;
16693;SDS011;39538;52.196;9.892;2022-12-07T06:43:14;5.30;;;4.80;;
16693;SDS011;39538;52.196;9.892;2022-12-07T06:45:41;5.43;;;4.93;;
16693;SDS011;39538;52.196;9.892;2022-12-07T06:48:07;5.30;;;4.80;;
16693;SDS011;39538;52.196;9.892;2022-12-07T06:50:35;12.83;;;6.83;;
16693;SDS011;39538;52.196;9.892;2022-12-07T06:53:02;5.70;;;4.73;;
16693;SDS011;39538;52.196;9.892;2022-12-07T06:55:28;9.97;;;4.80;;
16693;SDS011;39538;52.196;9.892;2022-12-07T06:57:55;6.93;;;5.73;;
16693;SDS011;39538;52.196;9.892;2022-12-07T07:00:22;5.90;;;4.67;;
16693;SDS011;39538;52.196;9.892;2022-12-07T07:02:48;5.00;;;4.60;;
16693;SDS011;39538;52.196;9.892;2022-12-07T07:05:15;5.20;;;4.80;;
16693;SDS011;39538;52.196;9.892;2022-12-07T07:07:43;5.83;;;5.27;;
16693;SDS011;39538;52.196;9.892;2022-12-07T07:10:09;3.97;;;3.67;;
16693;SDS011;39538;52.196;9.892;2022-12-07T07:12:36;5.13;;;4.67;;
16693;SDS011;39538;52.196;9.892;2022-12-07T07:15:03;6.13;;;4.07;;
16693;SDS011;39538;52.196;9.892;2022-12-07T07:17:30;3.80;;;3.50;;
16693;SDS011;39538;52.196;9.892;2022-12-07T07:19:56;4.77;;;4.27;;
16693;SDS011;39538;52.196;9.892;2022-12-07T07:22:23;7.03;;;3.13;;
16693;SDS011;39538;52.196;9.892;2022-12-07T07:24:51;3.17;;;2.87;;
16693;SDS011;39538;52.196;9.892;2022-12-07T07:27:17;6.77;;;4.00;;
16693;SDS011;39538;52.196;9.892;2022-12-07T07:29:44;6.32;;;5.75;;
16693;SDS011;39538;52.196;9.892;2022-12-07T07:32:10;4.67;;;3.90;;
16693;SDS011;39538;52.196;9.892;2022-12-07T07:34:37;6.63;;;4.23;;
16693;SDS011;39538;52.196;9.892;2022-12-07T07:37:03;5.37;;;4.97;;
16693;SDS011;39538;52.196;9.892;2022-12-07T07:39:30;6.37;;;3.63;;
16693;SDS011;39538;52.196;9.892;2022-12-07T07:41:58;2.57;;;2.43;;
16693;SDS011;39538;52.196;9.892;2022-12-07T07:44:24;2.40;;;2.20;;
16693;SDS011;39538;52.196;9.892;2022-12-07T07:46:51;2.83;;;2.53;;
16693;SDS011;39538;52.196;9.892;2022-12-07T07:49:17;3.10;;;2.37;;
16693;SDS011;39538;52.196;9.892;2022-12-07T07:51:44;2.57;;;2.37;;
16693;SDS011;39538;52.196;9.892;2022-12-07T07:54:11;2.50;;;1.97;;
16693;SDS011;39538;52.196;9.892;2022-12-07T07:56:37;3.27;;;2.10;;
16693;SDS011;39538;52.196;9.892;2022-12-07T07:59:05;7.23;;;3.00;;
16693;SDS011;39538;52.196;9.892;2022-12-07T08:01:31;2.30;;;2.03;;
16693;SDS011;39538;52.196;9.892;2022-12-07T08:03:58;3.33;;;2.10;;
16693;SDS011;39538;52.196;9.892;2022-12-07T08:06:25;2.70;;;1.90;;
16693;SDS011;39538;52.196;9.892;2022-12-07T08:08:51;2.33;;;1.57;;
16693;SDS011;39538;52.196;9.892;2022-12-07T08:11:18;3.77;;;1.50;;
16693;SDS011;39538;52.196;9.892;2022-12-07T08:13:45;4.00;;;2.13;;
16693;SDS011;39538;52.196;9.892;2022-12-07T08:16:13;3.57;;;2.40;;
16693;SDS011;39538;52.196;9.892;2022-12-07T08:18:40;2.00;;;1.90;;
16693;SDS011;39538;52.196;9.892;2022-12-07T08:21:09;11.07;;;2.57;;
16693;SDS011;39538;52.196;9.892;2022-12-07T08:23:38;5.60;;;2.30;;
16693;SDS011;39538;52.196;9.892;2022-12-07T08:26:05;5.87;;;1.40;;
16693;SDS011;39538;52.196;9.892;2022-12-07T08:28:33;2.80;;;1.33;;
16693;SDS011;39538;52.196;9.892;2022-12-07T08:31:00;2.73;;;1.17;;
16693;SDS011;39538;52.196;9.892;2022-12-07T08:33:28;1.17;;;1.17;;
16693;SDS011;39538;52.196;9.892;2022-12-07T08:36:00;2.03;;;1.83;;
16693;SDS011;39538;52.196;9.892;2022-12-07T08:38:27;2.50;;;1.53;;
16693;SDS011;39538;52.196;9.892;2022-12-07T08:40:54;7.00;;;1.10;;
16693;SDS011;39538;52.196;9.892;2022-12-07T08:43:21;0.83;;;0.83;;
16693;SDS011;39538;52.196;9.892;2022-12-07T08:45:48;3.20;;;1.10;;
16693;SDS011;39538;52.196;9.892;2022-12-07T08:48:31;2.93;;;1.07;;
16693;SDS011;39538;52.196;9.892;2022-12-07T08:50:58;4.67;;;1.40;;
16693;SDS011;39538;52.196;9.892;2022-12-07T08:53:27;2.73;;;1.50;;
16693;SDS011;39538;52.196;9.892;2022-12-07T08:55:55;1.37;;;0.90;;
16693;SDS011;39538;52.196;9.892;2022-12-07T08:58:23;1.43;;;1.03;;
16693;SDS011;39538;52.196;9.892;2022-12-07T09:00:49;3.83;;;1.87;;
16693;SDS011;39538;52.196;9.892;2022-12-07T09:03:16;1.17;;;0.97;;
16693;SDS011;39538;52.196;9.892;2022-12-07T09:05:44;5.57;;;1.10;;
16693;SDS011;39538;52.196;9.892;2022-12-07T09:08:10;2.50;;;1.13;;
16693;SDS011;39538;52.196;9.892;2022-12-07T09:10:37;4.63;;;1.33;;
16693;SDS011;39538;52.196;9.892;2022-12-07T09:13:04;1.07;;;0.90;;
16693;SDS011;39538;52.196;9.892;2022-12-07T09:15:30;4.87;;;1.40;;
16693;SDS011;39538;52.196;9.892;2022-12-07T09:17:57;4.00;;;1.30;;
16693;SDS011;39538;52.196;9.892;2022-12-07T09:20:24;2.53;;;1.27;;
16693;SDS011;39538;52.196;9.892;2022-12-07T09:22:51;1.97;;;1.27;;
16693;SDS011;39538;52.196;9.892;2022-12-07T09:25:18;1.27;;;1.10;;
16693;SDS011;39538;52.196;9.892;2022-12-07T09:27:45;2.83;;;1.00;;
16693;SDS011;39538;52.196;9.892;2022-12-07T09:30:12;0.90;;;0.90;;
16693;SDS011;39538;52.196;9.892;2022-12-07T09:32:38;3.20;;;0.97;;
16693;SDS011;39538;52.196;9.892;2022-12-07T09:35:05;0.90;;;0.70;;
16693;SDS011;39538;52.196;9.892;2022-12-07T09:37:32;1.07;;;1.03;;
16693;SDS011;39538;52.196;9.892;2022-12-07T09:40:02;6.33;;;1.20;;
16693;SDS011;39538;52.196;9.892;2022-12-07T09:42:32;1.90;;;0.60;;
16693;SDS011;39538;52.196;9.892;2022-12-07T09:45:00;1.67;;;0.70;;
16693;SDS011;39538;52.196;9.892;2022-12-07T09:47:28;0.87;;;0.87;;
16693;SDS011;39538;52.196;9.892;2022-12-07T09:49:55;0.60;;;0.60;;
16693;SDS011;39538;52.196;9.892;2022-12-07T09:52:29;1.37;;;0.70;;
16693;SDS011;39538;52.196;9.892;2022-12-07T09:54:57;1.60;;;1.03;;
16693;SDS011;39538;52.196;9.892;2022-12-07T09:57:27;2.10;;;1.30;;
16693;SDS011;39538;52.196;9.892;2022-12-07T09:59:56;0.63;;;0.63;;
16693;SDS011;39538;52.196;9.892;2022-12-07T10:02:35;2.10;;;0.77;;
16693;SDS011;39538;52.196;9.892;2022-12-07T10:05:03;1.97;;;0.57;;
16693;SDS011;39538;52.196;9.892;2022-12-07T10:07:32;0.50;;;0.50;;
16693;SDS011;39538;52.196;9.892;2022-12-07T10:09:58;2.40;;;0.80;;
16693;SDS011;39538;52.196;9.892;2022-12-07T10:12:26;1.90;;;0.93;;
16693;SDS011;39538;52.196;9.892;2022-12-07T10:14:54;6.00;;;1.00;;
16693;SDS011;39538;52.196;9.892;2022-12-07T10:17:29;1.00;;;0.43;;
16693;SDS011;39538;52.196;9.892;2022-12-07T10:20:15;0.70;;;0.70;;
16693;SDS011;39538;52.196;9.892;2022-12-07T10:22:58;4.93;;;0.40;;
16693;SDS011;39538;52.196;9.892;2022-12-07T10:25:27;1.10;;;0.77;;
16693;SDS011;39538;52.196;9.892;2022-12-07T10:27:58;2.57;;;0.50;;
16693;SDS011;39538;52.196;9.892;2022-12-07T10:30:27;0.83;;;0.63;;
16693;SDS011;39538;52.196;9.892;2022-12-07T10:32:53;1.50;;;0.63;;
16693;SDS011;39538;52.196;9.892;2022-12-07T10:35:22;1.07;;;0.40;;
16693;SDS011;39538;52.196;9.892;2022-12-07T10:37:51;1.20;;;0.93;;
16693;SDS011;39538;52.196;9.892;2022-12-07T10:40:30;0.70;;;0.70;;
16693;SDS011;39538;52.196;9.892;2022-12-07T10:43:18;0.77;;;0.70;;
16693;SDS011;39538;52.196;9.892;2022-12-07T10:45:59;1.73;;;1.03;;
16693;SDS011;39538;52.196;9.892;2022-12-07T10:48:51;1.27;;;0.70;;
16693;SDS011;39538;52.196;9.892;2022-12-07T10:51:26;1.47;;;0.90;;
16693;SDS011;39538;52.196;9.892;2022-12-07T10:54:03;0.70;;;0.70;;
16693;SDS011;39538;52.196;9.892;2022-12-07T10:56:53;1.17;;;0.50;;
16693;SDS011;39538;52.196;9.892;2022-12-07T11:02:43;3.07;;;0.80;;
16693;SDS011;39538;52.196;9.892;2022-12-07T11:05:34;2.40;;;0.70;;
16693;SDS011;39538;52.196;9.892;2022-12-07T11:08:11;1.20;;;0.70;;
16693;SDS011;39538;52.196;9.892;2022-12-07T11:10:44;0.70;;;0.70;;
16693;SDS011;39538;52.196;9.892;2022-12-07T11:13:22;1.13;;;0.67;;
16693;SDS011;39538;52.196;9.892;2022-12-07T11:16:03;1.20;;;1.13;;
16693;SDS011;39538;52.196;9.892;2022-12-07T11:18:42;0.70;;;0.63;;
16693;SDS011;39538;52.196;9.892;2022-12-07T11:21:17;5.33;;;2.33;;
16693;SDS011;39538;52.196;9.892;2022-12-07T11:23:53;6.03;;;0.90;;
16693;SDS011;39538;52.196;9.892;2022-12-07T11:26:34;4.47;;;2.03;;
16693;SDS011;39538;52.196;9.892;2022-12-07T11:29:16;7.17;;;2.83;;
16693;SDS011;39538;52.196;9.892;2022-12-07T11:31:58;2.40;;;1.07;;
16693;SDS011;39538;52.196;9.892;2022-12-07T11:34:37;2.00;;;1.07;;
16693;SDS011;39538;52.196;9.892;2022-12-07T11:37:10;0.70;;;0.70;;
16693;SDS011;39538;52.196;9.892;2022-12-07T11:39:41;2.10;;;1.40;;
16693;SDS011;39538;52.196;9.892;2022-12-07T11:42:13;2.97;;;1.10;;
16693;SDS011;39538;52.196;9.892;2022-12-07T11:44:45;3.17;;;1.20;;
16693;SDS011;39538;52.196;9.892;2022-12-07T11:47:20;4.53;;;1.60;;
16693;SDS011;39538;52.196;9.892;2022-12-07T11:49:54;3.50;;;1.30;;
16693;SDS011;39538;52.196;9.892;2022-12-07T11:52:27;1.60;;;1.50;;
16693;SDS011;39538;52.196;9.892;2022-12-07T11:55:16;3.73;;;1.60;;
16693;SDS011;39538;52.196;9.892;2022-12-07T11:57:50;4.10;;;1.63;;
16693;SDS011;39538;52.196;9.892;2022-12-07T12:00:22;4.13;;;1.57;;
16693;SDS011;39538;52.196;9.892;2022-12-07T12:02:52;2.77;;;1.97;;
16693;SDS011;39538;52.196;9.892;2022-12-07T12:05:26;2.10;;;1.10;;
16693;SDS011;39538;52.196;9.892;2022-12-07T12:07:55;9.20;;;2.63;;
16693;SDS011;39538;52.196;9.892;2022-12-07T12:10:33;2.30;;;1.67;;
16693;SDS011;39538;52.196;9.892;2022-12-07T12:16:07;4.40;;;1.53;;
16693;SDS011;39538;52.196;9.892;2022-12-07T12:18:50;2.73;;;2.30;;
16693;SDS011;39538;52.196;9.892;2022-12-07T12:21:29;1.30;;;0.80;;
16693;SDS011;39538;52.196;9.892;2022-12-07T12:23:57;1.70;;;0.63;;
16693;SDS011;39538;52.196;9.892;2022-12-07T12:26:27;0.50;;;0.50;;
16693;SDS011;39538;52.196;9.892;2022-12-07T12:28:56;2.73;;;0.50;;
16693;SDS011;39538;52.196;9.892;2022-12-07T12:31:31;0.80;;;0.50;;
16693;SDS011;39538;52.196;9.892;2022-12-07T12:34:03;4.90;;;1.33;;
16693;SDS011;39538;52.196;9.892;2022-12-07T12:36:51;1.47;;;0.50;;
16693;SDS011;39538;52.196;9.892;2022-12-07T12:39:17;3.80;;;0.60;;
16693;SDS011;39538;52.196;9.892;2022-12-07T12:41:58;2.00;;;0.80;;
16693;SDS011;39538;52.196;9.892;2022-12-07T12:44:42;0.70;;;0.70;;
16693;SDS011;39538;52.196;9.892;2022-12-07T12:51:35;3.93;;;1.20;;
16693;SDS011;39538;52.196;9.892;2022-12-07T12:54:08;0.90;;;0.90;;
16693;SDS011;39538;52.196;9.892;2022-12-07T12:56:40;5.20;;;0.83;;
16693;SDS011;39538;52.196;9.892;2022-12-07T13:02:08;2.40;;;1.00;;
16693;SDS011;39538;52.196;9.892;2022-12-07T13:04:50;2.03;;;0.80;;
16693;SDS011;39538;52.196;9.892;2022-12-07T13:10:36;3.30;;;1.00;;
16693;SDS011;39538;52.196;9.892;2022-12-07T13:19:27;2.60;;;1.00;;
16693;SDS011;39538;52.196;9.892;2022-12-07T13:25:17;1.37;;;1.20;;
16693;SDS011;39538;52.196;9.892;2022-12-07T13:27:50;1.03;;;0.90;;
16693;SDS011;39538;52.196;9.892;2022-12-07T13:30:22;5.67;;;1.73;;
16693;SDS011;39538;52.196;9.892;2022-12-07T13:32:51;2.83;;;0.70;;
16693;SDS011;39538;52.196;9.892;2022-12-07T13:35:32;6.80;;;1.37;;
16693;SDS011;39538;52.196;9.892;2022-12-07T13:38:01;2.87;;;0.70;;
16693;SDS011;39538;52.196;9.892;2022-12-07T13:40:30;0.80;;;0.60;;
16693;SDS011;39538;52.196;9.892;2022-12-07T13:42:59;5.20;;;1.03;;
16693;SDS011;39538;52.196;9.892;2022-12-07T13:45:27;1.83;;;0.90;;
16693;SDS011;39538;52.196;9.892;2022-12-07T13:48:14;6.17;;;1.30;;
16693;SDS011;39538;52.196;9.892;2022-12-07T13:50:52;1.60;;;0.90;;
16693;SDS011;39538;52.196;9.892;2022-12-07T13:53:19;4.67;;;1.13;;
16693;SDS011;39538;52.196;9.892;2022-12-07T13:55:46;5.43;;;1.93;;
16693;SDS011;39538;52.196;9.892;2022-12-07T13:58:15;0.60;;;0.57;;
16693;SDS011;39538;52.196;9.892;2022-12-07T14:00:42;1.70;;;0.90;;
16693;SDS011;39538;52.196;9.892;2022-12-07T14:03:29;3.97;;;1.13;;
16693;SDS011;39538;52.196;9.892;2022-12-07T14:09:05;2.73;;;0.77;;
16693;SDS011;39538;52.196;9.892;2022-12-07T14:11:32;1.60;;;0.67;;
16693;SDS011;39538;52.196;9.892;2022-12-07T14:14:01;7.40;;;0.97;;
16693;SDS011;39538;52.196;9.892;2022-12-07T14:16:29;3.13;;;0.70;;
16693;SDS011;39538;52.196;9.892;2022-12-07T14:18:57;3.03;;;0.80;;
16693;SDS011;39538;52.196;9.892;2022-12-07T14:21:26;1.83;;;1.00;;
16693;SDS011;39538;52.196;9.892;2022-12-07T14:24:10;4.00;;;1.60;;
16693;SDS011;39538;52.196;9.892;2022-12-07T14:26:40;3.23;;;1.10;;
16693;SDS011;39538;52.196;9.892;2022-12-07T14:29:20;1.30;;;1.23;;
16693;SDS011;39538;52.196;9.892;2022-12-07T14:31:49;2.80;;;1.50;;
16693;SDS011;39538;52.196;9.892;2022-12-07T14:34:15;2.53;;;1.53;;
16693;SDS011;39538;52.196;9.892;2022-12-07T14:36:42;4.73;;;0.90;;
16693;SDS011;39538;52.196;9.892;2022-12-07T14:39:08;4.03;;;1.30;;
16693;SDS011;39538;52.196;9.892;2022-12-07T14:41:35;3.67;;;1.87;;
16693;SDS011;39538;52.196;9.892;2022-12-07T14:44:17;4.77;;;2.37;;
16693;SDS011;39538;52.196;9.892;2022-12-07T14:46:46;6.03;;;2.47;;
16693;SDS011;39538;52.196;9.892;2022-12-07T14:49:13;6.83;;;2.10;;
16693;SDS011;39538;52.196;9.892;2022-12-07T14:51:40;7.07;;;1.80;;
16693;SDS011;39538;52.196;9.892;2022-12-07T14:54:09;1.67;;;1.00;;
16693;SDS011;39538;52.196;9.892;2022-12-07T14:56:40;1.33;;;1.23;;
16693;SDS011;39538;52.196;9.892;2022-12-07T14:59:08;1.40;;;1.30;;
16693;SDS011;39538;52.196;9.892;2022-12-07T15:01:35;1.33;;;1.20;;
16693;SDS011;39538;52.196;9.892;2022-12-07T15:04:03;2.87;;;1.00;;
16693;SDS011;39538;52.196;9.892;2022-12-07T15:06:30;1.20;;;0.80;;
16693;SDS011;39538;52.196;9.892;2022-12-07T15:08:57;9.20;;;1.60;;
16693;SDS011;39538;52.196;9.892;2022-12-07T15:11:23;5.80;;;1.07;;
16693;SDS011;39538;52.196;9.892;2022-12-07T15:13:50;2.23;;;1.10;;
16693;SDS011;39538;52.196;9.892;2022-12-07T15:16:36;3.80;;;1.17;;
16693;SDS011;39538;52.196;9.892;2022-12-07T15:19:06;3.20;;;1.33;;
16693;SDS011;39538;52.196;9.892;2022-12-07T15:21:37;3.07;;;1.07;;
16693;SDS011;39538;52.196;9.892;2022-12-07T15:24:04;1.30;;;0.90;;
16693;SDS011;39538;52.196;9.892;2022-12-07T15:26:31;1.57;;;1.17;;
16693;SDS011;39538;52.196;9.892;2022-12-07T15:28:58;3.77;;;1.50;;
16693;SDS011;39538;52.196;9.892;2022-12-07T15:31:24;1.60;;;1.33;;